This is the latest recevied weather packets stored in our database for station/object K3BAK-13. If no packets are shown the sender has not sent any weather packets the latest 10 day(s).
| Time | Temp. | Humidity | Pressure | Rain* | Wind** | Luminosity | Snow |
|---|---|---|---|---|---|---|---|
| 1777891260 | 10° C | 61% | 1012.1 hPa | 0 mm | - | - | - |
| 1777890960 | 10° C | 61% | 1012.1 hPa | 0 mm | - | - | - |
| 1777883759 | 9.44° C | 60% | 1013.1 hPa | 0 mm | - | - | - |
| 1777883460 | 9.44° C | 61% | 1013 hPa | 0 mm | - | - | - |
| 1777883159 | 9.44° C | 60% | 1013.2 hPa | 0 mm | - | - | - |
| 1777882858 | 9.44° C | 60% | 1013.1 hPa | 0 mm | - | - | - |
| 1777879259 | 9.44° C | 58% | 1013.6 hPa | 0 mm | - | - | - |
| 1777878659 | 9.44° C | 58% | 1013.7 hPa | 0 mm | - | - | - |
| 1777878061 | 9.44° C | 58% | 1013.7 hPa | 0 mm | - | - | - |
| 1777877759 | 9.44° C | 58% | 1013.7 hPa | 0 mm | - | - | - |
| 1777877459 | 9.44° C | 58% | 1013.8 hPa | 0 mm | - | - | - |
| 1777872961 | 10° C | 56% | 1014.3 hPa | 0 mm | - | - | - |
| 1777872058 | 10° C | 56% | 1014.4 hPa | 0 mm | - | - | - |
| 1777867558 | 8.89° C | 56% | 1014.5 hPa | 0 mm | - | - | - |
| 1777865161 | 8.89° C | 57% | 1014.4 hPa | 0 mm | - | - | - |
| 1777864559 | 8.89° C | 58% | 1014.5 hPa | 0 mm | - | - | - |
| 1777864259 | 8.89° C | 57% | 1014.5 hPa | 0 mm | - | - | - |
| 1777863361 | 9.44° C | 57% | 1014.5 hPa | 0 mm | - | - | - |
| 1777860963 | 10° C | 54% | 1014.8 hPa | 0 mm | - | - | - |
| 1777859159 | 10.56° C | 54% | 1014.7 hPa | 0 mm | - | - | - |
| 1777857958 | 10.56° C | 53% | 1014.6 hPa | 0 mm | - | - | - |
| 1777856758 | 11.67° C | 49% | 1014.5 hPa | 0 mm | - | - | - |
| 1777854959 | 12.22° C | 46% | 1014.4 hPa | 0 mm | - | - | - |
| 1777851358 | 13.89° C | 42% | 1014.5 hPa | 0 mm | - | - | - |
| 1777851072 | 13.89° C | 41% | 1014.5 hPa | 0 mm | - | - | - |
* Rain latest hour (hover to see other rain measurements)
** Current wind speed in m/s (hover to see current wind gust speed)